x

Ne Puerto Rico - 170 Nm Nne Of San Juan, P R (41043) Wave Buoy

7:50am - Sat 1st Nov 2014 All times are AST. -4 hours from GMT.

  • Sig Wave height 4.3ft
  • Swell Direction
  • Peak Period 8s
  • Average Period 6s
  • Wind
    11mph, 13mph gusts
  • Sea Temp 84°f
  • Air Temp 83°f
  • Sea Pressure 1015.5mb
  • Ne Puerto Rico  - 170 Nm Nne Of San Juan,  P R
  • Ne Puerto Rico  - 170 Nm Nne Of San Juan,  P R

More Historic Weather Station data

Upgrade to MSW Pro to gain access to the past 30 days of data for over 8000 Wavebouys and Weather Stations around the globe.

Join Pro

Comparision Forecast

View Surf forecast
   
Sat 11/01 7:50am 4.5ft 8s 6s 11 13 mph 1015.5mb 84f 83f
6:50am 4ft 7s 6s 11 13 mph 1014.8mb 84f 83f
5:50am 4.5ft 7s 6s 13 16 mph 1014.2mb 84f 83f
4:50am 4.5ft 8s 5s 11 13 mph 1013.6mb 84f 82f
3:50am 4ft 7s 5s 13 18 mph 1013.6mb 84f 83f
2:50am 4.5ft 7s 6s 11 13 mph 1013.7mb 84f 83f
1:50am 4.5ft 8s 6s 13 16 mph 1013.9mb 84f 83f
12:50am 4ft 7s 5s 13 16 mph 1014.2mb 84f 83f
Fri 10/31 11:50pm 4.5ft 8s 6s 13 16 mph 1014.3mb 84f 83f
10:50pm 4.5ft 6s 6s 11 16 mph 1014.5mb 84f 83f
9:50pm 4.5ft 7s 5s 11 13 mph 1014.4mb 84f 83f
8:50pm 4.5ft 7s 6s 11
mph
1014mb 84f 83f
7:50pm 4.5ft 7s 5s 13 16 mph 1013.1mb 85f 83f
6:50pm 4.5ft 9s 5s 13 18 mph 1012.5mb 85f 82f
5:50pm 4.5ft 8s 5s 16
mph
1012.1mb 85f 83f
4:50pm 5ft 7s 6s 9
mph
1011.6mb 85f 83f
3:50pm 5ft 7s 6s 9 11 mph 1011.2mb 85f 82f
2:50pm 5ft 8s 6s 16 18 mph 1011.1mb 85f 82f
1:50pm 5ft 8s 6s 7 9 mph 1011.2mb 85f 83f
12:50pm 5ft 8s 6s 7 11 mph 1011.9mb 85f 83f
11:50am 5ft 8s 6s 7 9 mph 1012.6mb 85f 83f
10:50am 5ft 8s 6s 9 11 mph 1013mb 85f 83f
9:50am 5ft 7s 6s 9 11 mph 1013mb 84f 83f
8:50am 5ft 8s 6s 11 16 mph 1011.8mb 84f 83f
7:50am 5.5ft 8s 6s 13 16 mph 1011.3mb 84f 83f
6:50am 5.5ft 8s 6s 13 18 mph 1010.6mb 84f 83f
5:50am 5ft 8s 6s 16 18 mph 1009.9mb 84f 82f
4:50am 6ft 8s 6s 13 16 mph 1009.3mb 84f 82f
3:50am 6ft 8s 6s 13 16 mph 1008.9mb 84f 82f
2:50am 6ft 8s 6s 16 18 mph 1008.9mb 84f 82f
1:50am 5ft 7s 6s 13 16 mph 1009mb 84f 82f
12:50am 6ft 8s 6s 13 18 mph 1009.2mb 84f 82f
Thu 10/30 11:50pm 5ft 8s 6s 11 16 mph 1009.3mb 84f 82f
10:50pm 5.5ft 8s 6s 7 11 mph 1009.7mb 84f 82f
9:50pm 5ft 8s 6s 7 9 mph 1009.6mb 84f 82f
8:50pm 5.5ft 8s 6s 7 9 mph 1009.5mb 84f 82f
7:50pm 5ft 7s 6s 7 9 mph 1008.8mb 84f 82f
6:50pm 5.5ft 8s 6s 13 18 mph 1008.8mb 84f 81f
5:50pm 6ft 8s 6s 18 20 mph 1008.3mb 84f 81f
4:50pm 6.5ft 8s 6s 9 13 mph 1008mb 84f 82f
3:50pm 7ft 8s 6s 9 13 mph 1007.6mb 85f 82f
2:50pm 7ft 8s 6s 11 13 mph 1007.6mb 85f 82f
1:50pm 6ft 8s 6s 16 18 mph 1008.1mb 85f 80f
12:50pm 7ft 8s 7s 13 16 mph 1009.2mb 85f 81f
11:50am 6ft 9s 6s 9 13 mph 1010mb 84f 80f
10:50am 8ft 9s 7s 13 18 mph 1010.7mb 84f 81f
9:50am 8ft 8s 6s 18 22 mph 1011mb 84f 82f
8:50am 7.5ft 8s 7s 16 20 mph 1011.1mb 84f 82f
7:50am 7.5ft 9s 6s 13 18 mph 1010.8mb 84f 82f
6:50am 8ft 9s 7s 16 18 mph 1010.4mb 84f 82f
5:50am 7ft 9s 6s 16 20 mph 1009.9mb 84f 82f
4:50am 8.5ft 9s 7s 16 20 mph 1009.6mb 84f 82f
3:50am 8.5ft 9s 7s 16 20 mph 1009.7mb 84f 82f
2:50am 8ft 10s 7s 18 20 mph 1010mb 84f 82f
1:50am 8ft 9s 7s 18 20 mph 1010.6mb 84f 82f
12:50am 8.5ft 9s 7s 18 22 mph 1011mb 84f 82f
Wed 10/29 11:50pm 7ft 9s 7s 18 20 mph 1011.6mb 84f 82f
10:50pm 6.5ft 10s 6s 16 20 mph 1012.2mb 84f 82f
9:50pm 6.5ft 8s 6s 16 20 mph 1012.5mb 84f 81f
8:50pm 6.5ft 8s 6s 20 25 mph 1012.5mb 84f 81f
7:50pm 6.5ft 9s 6s 16 18 mph 1012.8mb 84f 82f
6:50pm 6.5ft 8s 6s 16 18 mph 1012.2mb 84f 82f
5:50pm 7ft 9s 6s 16 20 mph 1012mb 84f 82f
4:50pm 6.5ft 8s 6s 16 20 mph 1011.9mb 84f 83f
3:50pm 7ft 9s 6s 18 25 mph 1011.8mb 84f 81f
2:50pm 7ft 8s  -  18 25 mph 1012.1mb 84f 83f
12:50pm 7ft 8s 6s 20 31 mph 1013.2mb 84f 83f
11:50am 7ft 8s 6s 18 22 mph 1014.2mb 84f 83f
10:50am 7ft 9s 6s 18 20 mph 1014.9mb 84f 83f
9:50am 6.5ft 9s 6s 18 22 mph 1015.2mb 84f 83f
8:50am 6ft 9s 6s 18 20 mph 1015.1mb 84f 83f
7:50am 5ft 8s 5s 18 20 mph 1014.8mb 84f 83f
6:50am 5ft 8s 6s 16 20 mph 1014.5mb 84f 83f
5:50am 5ft 8s 5s 16 20 mph 1014.2mb 84f 83f
4:50am 5ft 7s 5s 18 20 mph 1013.9mb 84f 83f
3:50am 5ft 8s 5s 18 20 mph 1014mb 84f 83f
2:50am 4.5ft 8s 5s 16 20 mph 1014.3mb 84f 83f
1:50am 4ft 8s 5s 16 18 mph 1014.9mb 84f 83f
12:50am 4.5ft 7s 5s 16 18 mph 1015.3mb 84f 83f
Tue 10/28 11:50pm 4ft 8s 5s 16 18 mph 1015.7mb 84f 83f
10:50pm 4ft 8s 5s 13 18 mph 1016.2mb 84f 83f
9:50pm 4ft 8s 5s 13 16 mph 1016.1mb 84f 83f
8:50pm 3.5ft 7s 5s 16 20 mph 1016mb 84f 83f
7:50pm 3.5ft 7s 5s 11 16 mph 1015.9mb 85f 82f
6:50pm 3.5ft 8s 6s 11 13 mph 1015.5mb 85f 83f
5:50pm 3.5ft 8s 6s 11 16 mph 1015.3mb 85f 83f
4:50pm 3.5ft 8s 6s 9 11 mph 1015mb 85f 83f
3:50pm 3.5ft 8s 6s 9 11 mph 1014.9mb 85f 83f
2:50pm 3.5ft 8s 6s 9
mph
1015mb 85f 83f
1:50pm 3.5ft 8s 6s 9 11 mph 1015.2mb 85f 83f